createdAt,value
2023-03-06T00:01:19.251Z,6.47
2023-03-06T00:04:08.469Z,6.47
2023-03-06T00:06:56.178Z,6.10
2023-03-06T00:09:44.178Z,6.50
2023-03-06T00:12:32.299Z,6.38
2023-03-06T00:15:20.477Z,6.30
2023-03-06T00:18:10.160Z,5.78
2023-03-06T00:20:58.092Z,5.57
2023-03-06T00:23:46.151Z,5.60
2023-03-06T00:26:35.630Z,5.90
2023-03-06T00:29:23.580Z,7.22
2023-03-06T00:32:11.679Z,6.35
2023-03-06T00:35:01.121Z,7.57
2023-03-06T00:37:49.079Z,6.95
2023-03-06T00:40:36.905Z,7.32
2023-03-06T00:43:25.043Z,6.07
2023-03-06T00:46:12.670Z,7.40
2023-03-06T00:49:00.707Z,6.70
2023-03-06T00:51:50.074Z,6.78
2023-03-06T00:54:38.015Z,5.72
2023-03-06T00:57:26.573Z,5.93
2023-03-06T01:00:16.334Z,6.25
2023-03-06T01:03:03.947Z,5.28
2023-03-06T01:05:51.938Z,5.70
2023-03-06T01:08:41.166Z,6.43
2023-03-06T01:11:31.339Z,5.65
2023-03-06T01:14:19.346Z,6.18
2023-03-06T01:17:07.658Z,5.68
2023-03-06T01:19:55.437Z,5.57
2023-03-06T01:22:43.372Z,6.43
2023-03-06T01:25:32.688Z,5.80
2023-03-06T01:28:20.561Z,5.70
2023-03-06T01:31:09.761Z,5.78
2023-03-06T01:33:58.102Z,6.38
2023-03-06T01:36:46.078Z,5.38
2023-03-06T01:39:34.070Z,5.90
2023-03-06T01:42:23.221Z,5.80
2023-03-06T01:45:50.572Z,5.93
2023-03-06T01:48:40.475Z,5.50
2023-03-06T01:51:33.324Z,6.25
2023-03-06T01:54:25.430Z,7.13
2023-03-06T01:57:15.926Z,7.97
2023-03-06T02:00:08.116Z,7.40
2023-03-06T02:02:59.768Z,8.07
2023-03-06T02:05:48.633Z,5.78
2023-03-06T02:08:36.779Z,7.32
2023-03-06T02:11:26.036Z,6.75
2023-03-06T02:14:16.033Z,7.13
2023-03-06T02:17:04.270Z,6.90
2023-03-06T02:20:02.726Z,7.18
2023-03-06T02:22:59.070Z,7.13
2023-03-06T02:25:50.839Z,5.57
2023-03-06T02:28:39.878Z,5.18
2023-03-06T02:31:31.014Z,4.88
2023-03-06T02:34:51.894Z,6.05
2023-03-06T02:37:39.605Z,6.85
2023-03-06T02:40:28.079Z,6.18
2023-03-06T02:43:21.478Z,5.40
2023-03-06T02:48:57.175Z,4.90
2023-03-06T02:51:44.883Z,5.30
2023-03-06T02:54:32.966Z,4.85
2023-03-06T02:57:21.020Z,5.25
2023-03-06T03:00:12.532Z,4.75
2023-03-06T03:03:00.499Z,5.78
2023-03-06T03:05:48.222Z,7.10
2023-03-06T03:08:36.552Z,8.68
2023-03-06T03:11:24.567Z,6.32
2023-03-06T03:14:12.602Z,6.30
2023-03-06T03:17:02.340Z,8.95
2023-03-06T03:19:50.578Z,8.18
2023-03-06T03:22:38.366Z,6.15
2023-03-06T03:25:27.846Z,6.35
2023-03-06T03:28:15.301Z,5.93
2023-03-06T03:31:09.185Z,6.13
2023-03-06T03:33:59.717Z,5.95
2023-03-06T03:36:47.695Z,6.13
2023-03-06T03:39:35.899Z,6.13
2023-03-06T03:42:24.161Z,7.18
2023-03-06T03:45:12.517Z,6.15
2023-03-06T03:48:00.219Z,4.95
2023-03-06T03:50:49.696Z,5.75
2023-03-06T03:53:37.432Z,5.28
2023-03-06T03:56:25.505Z,5.13
2023-03-06T03:59:13.496Z,5.85
2023-03-06T04:02:04.661Z,5.75
2023-03-06T04:04:52.631Z,5.65
2023-03-06T04:07:42.404Z,5.68
2023-03-06T04:10:30.393Z,6.65
2023-03-06T04:13:20.213Z,5.47
2023-03-06T04:16:08.563Z,6.20
2023-03-06T04:18:56.049Z,5.55
2023-03-06T04:21:44.032Z,5.75
2023-03-06T04:24:33.440Z,5.43
2023-03-06T04:27:21.256Z,5.03
2023-03-06T04:30:10.687Z,5.63
2023-03-06T04:33:02.605Z,5.50
2023-03-06T04:35:50.569Z,5.43
2023-03-06T04:38:38.508Z,5.35
2023-03-06T04:41:27.838Z,5.80
2023-03-06T04:44:15.920Z,5.63
2023-03-06T04:47:03.763Z,6.80
2023-03-06T04:49:51.685Z,10.50
2023-03-06T04:52:40.461Z,10.43
2023-03-06T04:55:28.478Z,9.57
2023-03-06T04:58:18.107Z,7.25
2023-03-06T05:01:06.056Z,8.57
2023-03-06T05:03:53.651Z,8.65
2023-03-06T05:06:41.764Z,6.75
2023-03-06T05:09:29.475Z,6.70
2023-03-06T05:12:17.423Z,9.95
2023-03-06T05:15:08.535Z,6.20
2023-03-06T05:17:56.501Z,9.45
2023-03-06T05:20:44.714Z,8.02
2023-03-06T05:23:36.171Z,7.68
2023-03-06T05:26:23.966Z,8.82
2023-03-06T05:29:11.995Z,7.05
2023-03-06T05:32:01.790Z,8.73
2023-03-06T05:34:49.869Z,9.75
2023-03-06T05:37:38.019Z,10.02
2023-03-06T05:40:26.354Z,8.15
2023-03-06T05:43:16.147Z,8.65
2023-03-06T05:46:05.162Z,8.57
2023-03-06T05:48:57.430Z,9.27
2023-03-06T05:51:45.397Z,7.90
2023-03-06T05:54:33.700Z,6.88
2023-03-06T05:57:22.226Z,6.55
2023-03-06T06:00:12.701Z,6.60
2023-03-06T06:03:02.791Z,7.30
2023-03-06T06:05:52.841Z,7.05
2023-03-06T06:08:41.730Z,9.20
2023-03-06T06:11:29.769Z,6.90
2023-03-06T06:14:17.763Z,7.45
2023-03-06T06:17:05.813Z,11.23
2023-03-06T06:19:53.785Z,10.52
2023-03-06T06:22:43.330Z,12.65
2023-03-06T06:25:31.264Z,10.55
2023-03-06T06:28:18.957Z,8.18
2023-03-06T06:31:12.165Z,11.85
2023-03-06T06:34:00.026Z,11.00
2023-03-06T06:36:49.480Z,11.25
2023-03-06T06:39:39.824Z,11.75
2023-03-06T06:42:33.164Z,11.70
2023-03-06T06:45:22.770Z,11.98
2023-03-06T06:48:11.322Z,11.18
2023-03-06T06:51:01.948Z,9.90
2023-03-06T06:53:50.062Z,13.73
2023-03-06T06:56:39.742Z,11.30
2023-03-06T06:59:27.678Z,9.63
2023-03-06T07:02:16.545Z,9.60
2023-03-06T07:05:05.643Z,13.68
2023-03-06T07:07:55.480Z,11.30
2023-03-06T07:10:43.524Z,11.63
2023-03-06T07:13:35.012Z,11.05
2023-03-06T07:16:24.245Z,10.55
2023-03-06T07:19:18.176Z,13.02
2023-03-06T07:22:09.499Z,10.55
2023-03-06T07:24:57.371Z,10.00
2023-03-06T07:27:52.609Z,10.68
2023-03-06T07:30:44.171Z,10.73
2023-03-06T07:33:31.783Z,13.32
2023-03-06T07:36:22.196Z,10.63
2023-03-06T07:39:10.492Z,14.85
2023-03-06T07:41:58.914Z,13.25
2023-03-06T07:44:46.599Z,12.23
2023-03-06T07:47:35.736Z,14.02
2023-03-06T07:50:23.709Z,11.70
2023-03-06T07:53:11.711Z,10.93
2023-03-06T07:55:59.846Z,11.52
2023-03-06T07:58:48.394Z,10.57
2023-03-06T08:01:39.284Z,11.10
2023-03-06T08:04:29.839Z,12.50
2023-03-06T08:07:17.912Z,12.68
2023-03-06T08:10:06.571Z,11.50
2023-03-06T08:12:54.271Z,10.80
2023-03-06T08:15:42.398Z,12.75
2023-03-06T08:18:30.877Z,10.82
2023-03-06T08:21:23.559Z,11.40
2023-03-06T08:24:13.140Z,11.07
2023-03-06T08:27:01.758Z,11.38
2023-03-06T08:29:49.822Z,11.77
2023-03-06T08:32:38.604Z,11.75
2023-03-06T08:35:26.741Z,10.88
2023-03-06T08:38:16.490Z,10.63
2023-03-06T08:41:04.657Z,11.60
2023-03-06T08:43:52.995Z,10.88
2023-03-06T08:46:41.462Z,10.70
2023-03-06T08:49:29.593Z,10.98
2023-03-06T08:52:17.870Z,9.90
2023-03-06T08:55:08.191Z,10.90
2023-03-06T08:57:56.710Z,9.75
2023-03-06T09:00:44.765Z,9.35
2023-03-06T09:03:32.565Z,8.48
2023-03-06T09:06:20.593Z,9.20
2023-03-06T09:09:09.413Z,9.57
2023-03-06T09:11:58.519Z,8.38
2023-03-06T09:14:46.625Z,9.05
2023-03-06T09:17:34.728Z,9.32
2023-03-06T09:20:23.113Z,9.23
2023-03-06T09:23:11.306Z,9.00
2023-03-06T09:26:00.618Z,8.73
2023-03-06T09:29:23.946Z,8.65
2023-03-06T09:32:12.303Z,8.68
2023-03-06T09:35:00.501Z,9.15
2023-03-06T09:37:48.588Z,9.95
2023-03-06T09:40:52.528Z,9.65
2023-03-06T09:43:43.223Z,8.90
2023-03-06T09:46:42.690Z,9.35
2023-03-06T09:49:44.863Z,8.88
2023-03-06T09:52:38.564Z,9.10
2023-03-06T09:55:30.039Z,9.65
2023-03-06T09:58:21.910Z,8.98
2023-03-06T10:01:19.679Z,9.05
2023-03-06T10:04:17.315Z,10.25
2023-03-06T10:07:14.148Z,9.50
2023-03-06T10:10:05.269Z,9.27
2023-03-06T10:13:02.879Z,10.77
2023-03-06T10:15:53.984Z,16.67
2023-03-06T10:18:41.978Z,13.13
2023-03-06T10:21:46.846Z,12.23
2023-03-06T10:24:48.514Z,10.68
2023-03-06T10:27:46.945Z,10.52
2023-03-06T10:30:41.666Z,9.82
2023-03-06T10:33:42.087Z,9.50
2023-03-06T10:36:30.957Z,9.65
2023-03-06T10:39:22.504Z,9.15
2023-03-06T10:42:11.138Z,9.65
2023-03-06T10:45:18.267Z,9.25
2023-03-06T10:48:18.518Z,8.45
2023-03-06T10:51:20.238Z,8.55
2023-03-06T10:54:21.040Z,7.85
2023-03-06T10:57:27.024Z,8.35
2023-03-06T11:00:28.150Z,7.55
2023-03-06T11:03:24.652Z,7.63
2023-03-06T11:06:14.593Z,7.85
2023-03-06T11:09:17.886Z,7.70
2023-03-06T11:12:26.927Z,8.65
2023-03-06T11:15:22.150Z,7.38
2023-03-06T11:18:31.029Z,7.78
2023-03-06T11:21:31.044Z,7.50
2023-03-06T11:24:21.772Z,7.18
2023-03-06T11:27:22.566Z,7.47
2023-03-06T11:30:19.557Z,7.68
2023-03-06T11:33:19.939Z,7.88
2023-03-06T11:36:16.132Z,7.70
2023-03-06T11:39:15.488Z,8.60
2023-03-06T11:42:12.810Z,8.75
2023-03-06T11:45:18.909Z,9.93
2023-03-06T11:48:22.752Z,9.73
2023-03-06T11:51:19.320Z,9.20
2023-03-06T11:54:10.645Z,8.35
2023-03-06T11:57:02.772Z,8.25
2023-03-06T12:00:18.577Z,8.10
2023-03-06T12:03:45.751Z,8.07
2023-03-06T12:06:44.804Z,8.07
2023-03-06T12:09:42.890Z,8.48
2023-03-06T12:12:59.843Z,7.93
2023-03-06T12:16:13.503Z,7.45
2023-03-06T12:19:18.221Z,8.20
2023-03-06T12:22:21.710Z,7.65
2023-03-06T12:25:26.912Z,8.20
2023-03-06T12:28:35.112Z,9.15
2023-03-06T12:31:40.512Z,8.23
2023-03-06T12:34:50.335Z,8.65
2023-03-06T12:37:52.766Z,8.65
2023-03-06T12:41:07.734Z,8.52
2023-03-06T12:44:14.752Z,9.25
2023-03-06T12:47:04.998Z,8.95
2023-03-06T12:50:00.264Z,9.30
2023-03-06T12:52:49.362Z,9.82
2023-03-06T12:55:41.987Z,9.38
2023-03-06T12:58:51.059Z,8.85
2023-03-06T13:02:02.049Z,9.50
2023-03-06T13:05:01.949Z,8.48
2023-03-06T13:08:01.223Z,8.05
2023-03-06T13:11:11.238Z,8.50
2023-03-06T13:13:59.341Z,8.10
2023-03-06T13:16:47.132Z,8.32
2023-03-06T13:19:35.012Z,9.00
2023-03-06T13:22:30.957Z,8.23
2023-03-06T13:25:47.666Z,7.47
2023-03-06T13:28:46.220Z,6.75
2023-03-06T13:32:06.790Z,7.28
2023-03-06T13:34:54.756Z,7.13
2023-03-06T13:37:54.847Z,6.68
2023-03-06T13:40:42.596Z,7.38
2023-03-06T13:43:31.958Z,6.80
2023-03-06T13:46:26.039Z,6.65
2023-03-06T13:49:24.097Z,6.72
2023-03-06T13:52:23.951Z,6.45
2023-03-06T13:55:23.547Z,6.28
2023-03-06T13:58:24.238Z,6.45
2023-03-06T14:01:30.098Z,6.82
2023-03-06T14:04:38.738Z,6.95
2023-03-06T14:07:28.940Z,6.65
2023-03-06T14:10:24.210Z,6.80
2023-03-06T14:13:19.360Z,5.88
2023-03-06T14:16:18.316Z,6.15
2023-03-06T14:19:08.541Z,6.07
2023-03-06T14:21:58.556Z,6.07
2023-03-06T14:24:59.694Z,7.05
2023-03-06T14:27:53.587Z,7.00
2023-03-06T14:30:51.213Z,7.05
2023-03-06T14:33:45.059Z,8.57
2023-03-06T14:36:36.595Z,8.40
2023-03-06T14:39:30.690Z,7.13
2023-03-06T14:42:20.625Z,7.05
2023-03-06T14:45:17.110Z,6.95
2023-03-06T14:48:07.237Z,7.70
2023-03-06T14:50:57.568Z,7.80
2023-03-06T14:53:46.941Z,7.43
2023-03-06T14:56:41.260Z,7.18
2023-03-06T14:59:32.193Z,6.78
2023-03-06T15:02:24.518Z,7.00
2023-03-06T15:05:22.192Z,7.25
2023-03-06T15:08:10.660Z,7.80
2023-03-06T15:11:00.788Z,7.38
2023-03-06T15:14:02.527Z,8.45
2023-03-06T15:16:50.694Z,8.90
2023-03-06T15:19:42.512Z,8.27
2023-03-06T15:22:33.483Z,7.72
2023-03-06T15:25:26.772Z,8.73
2023-03-06T15:28:26.991Z,8.05
2023-03-06T15:31:22.699Z,8.05
2023-03-06T15:34:24.371Z,7.55
2023-03-06T15:37:29.135Z,7.35
2023-03-06T15:40:20.109Z,7.82
2023-03-06T15:43:12.873Z,7.03
2023-03-06T15:46:02.264Z,8.32
2023-03-06T15:48:55.204Z,7.57
2023-03-06T15:51:43.156Z,8.93
2023-03-06T15:54:33.093Z,8.38
2023-03-06T15:57:23.750Z,9.80
2023-03-06T16:00:27.363Z,7.88
2023-03-06T16:03:16.376Z,7.75
2023-03-06T16:06:04.570Z,8.48
2023-03-06T16:08:52.709Z,7.78
2023-03-06T16:11:44.929Z,8.10
2023-03-06T16:14:33.052Z,8.18
2023-03-06T16:17:21.267Z,8.43
2023-03-06T16:20:17.452Z,8.93
2023-03-06T16:23:07.976Z,8.38
2023-03-06T16:25:56.042Z,7.95
2023-03-06T16:28:46.416Z,8.50
2023-03-06T16:31:34.376Z,7.90
2023-03-06T16:34:22.446Z,9.77
2023-03-06T16:37:12.372Z,8.88
2023-03-06T16:40:00.314Z,8.90
2023-03-06T16:42:48.047Z,8.98
2023-03-06T16:45:39.424Z,9.40
2023-03-06T16:48:27.222Z,9.25
2023-03-06T16:51:16.642Z,8.30
2023-03-06T16:54:04.809Z,8.43
2023-03-06T16:56:52.532Z,7.93
2023-03-06T16:59:40.508Z,8.68
2023-03-06T17:02:29.713Z,8.90
2023-03-06T17:05:17.901Z,9.10
2023-03-06T17:08:08.553Z,9.00
2023-03-06T17:10:56.727Z,9.07
2023-03-06T17:13:44.695Z,10.13
2023-03-06T17:16:32.343Z,9.63
2023-03-06T17:19:22.004Z,8.93
2023-03-06T17:22:09.881Z,11.35
2023-03-06T17:24:57.973Z,11.27
2023-03-06T17:27:47.717Z,12.05
2023-03-06T17:30:36.616Z,16.25
2023-03-06T17:33:24.486Z,11.48
2023-03-06T17:36:14.322Z,11.68
2023-03-06T17:39:03.979Z,11.35
2023-03-06T17:41:51.890Z,10.88
2023-03-06T17:44:40.134Z,11.60
2023-03-06T17:47:28.071Z,10.48
2023-03-06T17:50:16.092Z,10.70
2023-03-06T17:53:05.259Z,10.65
2023-03-06T17:55:53.163Z,9.55
2023-03-06T17:58:41.392Z,10.88
2023-03-06T18:01:37.985Z,10.27
2023-03-06T18:04:28.266Z,11.10
2023-03-06T18:07:16.888Z,11.05
2023-03-06T18:10:07.264Z,9.38
2023-03-06T18:12:56.500Z,11.65
2023-03-06T18:15:44.611Z,10.60
2023-03-06T18:18:34.728Z,11.85
2023-03-06T18:21:24.042Z,10.15
2023-03-06T18:24:12.496Z,9.40
2023-03-06T18:27:02.138Z,10.93
2023-03-06T18:29:52.109Z,9.93
2023-03-06T18:32:40.594Z,9.82
2023-03-06T18:35:28.591Z,10.02
2023-03-06T18:38:16.446Z,9.85
2023-03-06T18:41:05.448Z,9.75
2023-03-06T18:43:55.681Z,9.57
2023-03-06T18:46:43.433Z,10.23
2023-03-06T18:49:35.223Z,9.73
2023-03-06T18:52:23.009Z,10.15
2023-03-06T18:55:11.779Z,9.98
2023-03-06T18:57:59.733Z,9.40
2023-03-06T19:00:49.848Z,9.35
2023-03-06T19:03:38.054Z,9.65
2023-03-06T19:06:27.840Z,11.10
2023-03-06T19:09:15.882Z,10.23
2023-03-06T19:12:04.686Z,9.52
2023-03-06T19:14:52.631Z,9.95
2023-03-06T19:17:42.158Z,11.00
2023-03-06T19:20:29.900Z,10.30
2023-03-06T19:23:18.236Z,10.77
2023-03-06T19:26:07.452Z,9.65
2023-03-06T19:28:55.587Z,10.07
2023-03-06T19:31:43.720Z,9.73
2023-03-06T19:34:33.103Z,10.05
2023-03-06T19:37:21.060Z,8.60
2023-03-06T19:40:10.631Z,9.70
2023-03-06T19:42:58.321Z,9.65
2023-03-06T19:45:46.708Z,9.50
2023-03-06T19:48:34.937Z,9.65
2023-03-06T19:51:24.158Z,10.40
2023-03-06T19:54:13.046Z,10.38
2023-03-06T19:57:00.899Z,9.77
2023-03-06T19:59:51.933Z,9.73
2023-03-06T20:02:39.880Z,9.90
2023-03-06T20:05:27.973Z,10.10
2023-03-06T20:08:17.215Z,9.63
2023-03-06T20:11:05.108Z,9.70
2023-03-06T20:13:53.623Z,11.43
2023-03-06T20:16:41.373Z,9.40
2023-03-06T20:19:29.482Z,11.95
2023-03-06T20:22:19.111Z,10.93
2023-03-06T20:25:09.043Z,12.65
2023-03-06T20:27:57.067Z,12.07
2023-03-06T20:30:45.543Z,10.20
2023-03-06T20:33:33.508Z,8.88
2023-03-06T20:36:28.007Z,12.27
2023-03-06T20:39:17.431Z,9.82
2023-03-06T20:42:07.089Z,9.60
2023-03-06T20:44:55.063Z,10.57
2023-03-06T20:47:46.870Z,10.45
2023-03-06T20:50:34.673Z,12.32
2023-03-06T20:53:23.015Z,11.00
2023-03-06T20:56:13.847Z,12.70
2023-03-06T20:59:03.664Z,10.07
2023-03-06T21:01:51.597Z,10.30
2023-03-06T21:04:41.075Z,10.55
2023-03-06T21:07:29.015Z,12.70
2023-03-06T21:10:16.969Z,10.18
2023-03-06T21:13:04.870Z,13.52
2023-03-06T21:15:54.273Z,10.73
2023-03-06T21:18:45.614Z,11.98
2023-03-06T21:21:35.755Z,9.48
2023-03-06T21:24:23.725Z,9.80
2023-03-06T21:27:11.487Z,11.27
2023-03-06T21:29:59.587Z,10.27
2023-03-06T21:32:48.850Z,9.80
2023-03-06T21:35:39.047Z,9.70
2023-03-06T21:38:26.730Z,10.80
2023-03-06T21:41:18.556Z,9.55
2023-03-06T21:44:08.058Z,9.70
2023-03-06T21:46:56.063Z,9.65
2023-03-06T21:49:45.326Z,9.55
2023-03-06T21:52:33.020Z,9.80
2023-03-06T21:55:21.803Z,9.57
2023-03-06T21:58:09.880Z,9.85
2023-03-06T22:00:58.309Z,8.80
2023-03-06T22:03:46.499Z,8.93
2023-03-06T22:06:36.163Z,9.23
2023-03-06T22:09:24.122Z,9.10
2023-03-06T22:12:12.273Z,8.35
2023-03-06T22:14:59.976Z,8.23
2023-03-06T22:17:48.641Z,8.10
2023-03-06T22:20:36.672Z,9.40
2023-03-06T22:23:26.040Z,8.85
2023-03-06T22:26:15.394Z,9.65
2023-03-06T22:29:03.385Z,9.07
2023-03-06T22:31:52.008Z,7.97
2023-03-06T22:34:40.070Z,8.27
2023-03-06T22:37:27.949Z,8.38
2023-03-06T22:40:17.661Z,9.95
2023-03-06T22:43:05.402Z,8.90
2023-03-06T22:45:53.690Z,8.93
2023-03-06T22:48:41.666Z,9.00
2023-03-06T22:51:30.511Z,9.95
2023-03-06T22:54:18.390Z,8.55
2023-03-06T22:57:08.614Z,8.13
2023-03-06T22:59:56.756Z,8.38
2023-03-06T23:02:44.939Z,9.02
2023-03-06T23:05:35.929Z,8.15
2023-03-06T23:08:23.812Z,8.75
2023-03-06T23:11:13.549Z,8.48
2023-03-06T23:14:05.377Z,9.13
2023-03-06T23:16:53.291Z,8.50
2023-03-06T23:19:41.326Z,8.77
2023-03-06T23:22:29.467Z,9.70
2023-03-06T23:25:17.406Z,9.00
2023-03-06T23:28:05.678Z,9.10
2023-03-06T23:30:55.010Z,8.93
2023-03-06T23:33:42.766Z,9.18
2023-03-06T23:36:31.752Z,8.75
2023-03-06T23:39:19.491Z,8.50
2023-03-06T23:42:07.462Z,9.23
2023-03-06T23:44:55.144Z,10.02
2023-03-06T23:47:44.577Z,10.05
2023-03-06T23:50:32.889Z,10.98
2023-03-06T23:53:20.617Z,10.82
2023-03-06T23:56:09.625Z,10.18
2023-03-06T23:58:57.763Z,10.02
